Flight Track Log - Related Links

Times and Time Zones

All times are in EDT time to prevent confusion due to time zone crossing. See the EJA947 flight status page for this flight to view local times or setup timezone preferences in your user account.

Time Position Orientation Groundspeed Altitude Reporting Facility
EDT Latitude Longitude Course Direction KTS MPH feet Rate Location/Type
Thu 03:02:24 PM 36.0744 -79.8375 44° Northeast 312 359 12,100  Level Washington Center
Thu 03:03:24 PM 36.1606 -79.7675 33° Northeast 368 423 12,600 1,300 Climbing Washington Center
Thu 03:04:24 PM 36.2311 -79.6503 53° Northeast 387 445 14,700 1,850 Climbing Washington Center
Thu 03:05:00 PM 36.4297 -79.2962 45° Northeast  Level FlightAware
Thu 03:05:24 PM 36.2869 -79.5475 56° Northeast 393 452 16,300  Level Washington Center
Thu 03:06:00 PM 36.5176 -79.1864 45° Northeast  Level FlightAware
Thu 03:06:24 PM 36.3556 -79.4244 55° Northeast 398 458 19,100  Level Washington Center
Thu 03:07:00 PM 36.6070 -79.0783 44° Northeast  Level FlightAware
Thu 03:07:24 PM 36.4172 -79.3242 53° Northeast 398 458 21,100  Level Washington Center
Thu 03:08:24 PM 36.4975 -79.2247 45° Northeast 398 458 23,900 2,800 Climbing Washington Center
Thu 03:09:24 PM 36.5772 -79.1328 43° Northeast 398 458 26,700 2,600 Climbing Washington Center
Thu 03:10:24 PM 36.6508 -79.0456 44° Northeast 392 451 29,100 2,250 Climbing Washington Center
Thu 03:11:24 PM 36.7464 -78.9150 48° Northeast 408 470 31,200 1,800 Climbing Washington Center
Thu 03:12:24 PM 36.8308 -78.7967 48° Northeast 429 494 32,700 1,450 Climbing Washington Center
Thu 03:13:24 PM 36.9258 -78.6733 46° Northeast 459 528 34,100 1,400 Climbing Washington Center
Thu 03:14:24 PM 37.0083 -78.5544 49° Northeast 489 563 35,500 1,550 Climbing Washington Center
Thu 03:15:24 PM 37.1114 -78.4306 44° Northeast 503 579 37,200 1,800 Climbing Washington Center
Thu 03:16:24 PM 37.2225 -78.3147 40° Northeast 509 586 39,100 1,700 Climbing Washington Center
Thu 03:17:24 PM 37.3419 -78.1936 39° Northeast 509 586 40,600 950 Climbing Washington Center
Thu 03:18:24 PM 37.4467 -78.0847 40° Northeast 494 568 41,000 200 Climbing Washington Center
Thu 03:19:24 PM 37.5572 -77.9706 39° Northeast 501 577 41,000  Level Washington Center
Thu 03:20:24 PM 37.6703 -77.8533 39° Northeast 507 583 41,000  Level Washington Center
Thu 03:21:24 PM 37.7786 -77.7383 40° Northeast 507 583 41,000 -100 Level Washington Center
Thu 03:22:24 PM 37.8869 -77.6203 41° Northeast 507 583 40,800 -950 Descending Washington Center
Thu 03:23:24 PM 37.9889 -77.5150 39° Northeast 494 568 39,100 -1,750 Descending Washington Center
Thu 03:24:24 PM 38.0758 -77.4250 39° Northeast 463 533 37,300 -1,900 Descending Washington Center
Thu 03:25:24 PM 38.1733 -77.3192 40° Northeast 457 526 35,300 -1,950 Descending Washington Center
Thu 03:26:24 PM 38.2728 -77.2103 41° Northeast 457 526 33,400 -1,950 Descending Washington Center
Thu 03:27:24 PM 38.3806 -77.1067 37° Northeast 469 540 31,400 -1,900 Descending Washington Center
Thu 03:28:24 PM 38.5025 -77.0322 26° Northeast 474 545 29,600 -1,200 Descending Washington Center
Thu 03:29:24 PM 38.6078 -76.9281 38° Northeast 474 545 29,000 -300 Descending Washington Center
Thu 03:30:24 PM 38.7031 -76.8072 45° Northeast 479 551 29,000  Level Washington Center
Thu 03:31:24 PM 38.7981 -76.6811 46° Northeast 484 557 29,000  Level Washington Center
Thu 03:32:24 PM 38.9056 -76.5414 45° Northeast 495 570 29,000 -900 Level Washington Center
Thu 03:33:24 PM 39.0022 -76.4197 44° Northeast 495 570 27,200 -1,950 Descending Washington Center
Thu 03:34:24 PM 39.0925 -76.3003 46° Northeast 480 552 25,100 -1,600 Descending Washington Center
Thu 03:35:24 PM 39.1808 -76.1914 44° Northeast 457 526 24,000 -650 Descending Washington Center
Thu 03:36:24 PM 39.2667 -76.0983 40° Northeast 452 520 23,800 -1,268 Descending Washington Center
Thu 03:37:46 PM 39.3939 -75.9547 41° Northeast 413 475 21,000 -2,000 Descending FAA TRACON
Thu 03:38:06 PM 39.4133 -75.9175 56° Northeast 401 461 20,400 -1,846 Descending FAA TRACON
Thu 03:38:25 PM 39.4322 -75.8806 56° Northeast 403 464 19,800 -2,100 Descending FAA TRACON
Thu 03:38:46 PM 39.4567 -75.8361 55° Northeast 403 464 19,000 -1,902 Descending FAA TRACON
Thu 03:39:06 PM 39.4831 -75.8094 38° Northeast 391 450 18,500 -1,950 Descending FAA TRACON
Thu 03:39:26 PM 39.5119 -75.7867 31° Northeast 389 448 17,700 -2,000 Descending FAA TRACON
Thu 03:39:45 PM 39.5494 -75.7631 26° Northeast 388 447 17,200 -1,538 Descending FAA TRACON
Thu 03:40:05 PM 39.5786 -75.7436 27° Northeast 384 442 16,700 -1,500 Descending FAA TRACON
Thu 03:40:25 PM 39.6072 -75.7244 27° Northeast 382 440 16,200 -1,800 Descending FAA TRACON
Thu 03:40:45 PM 39.6436 -75.7014 26° Northeast 377 434 15,500 -1,800 Descending FAA TRACON
Thu 03:41:05 PM 39.6719 -75.6828 27° Northeast 375 432 15,000 -1,500 Descending FAA TRACON
Thu 03:41:25 PM 39.7014 -75.6636 27° Northeast 376 433 14,500 -1,756 Descending FAA TRACON
Thu 03:41:46 PM 39.7378 -75.6397 27° Northeast 379 436 13,800 -1,756 Descending FAA TRACON
Thu 03:42:06 PM 39.7658 -75.6219 26° Northeast 378 435 13,300 -1,050 Descending FAA TRACON
Thu 03:42:26 PM 39.7939 -75.6008 30° Northeast 357 411 13,100 -300 Descending FAA TRACON
Thu 03:42:46 PM 39.8261 -75.5719 35° Northeast 373 429 13,100  Level FAA TRACON
Thu 03:43:06 PM 39.8514 -75.5486 35° Northeast 365 420 13,100 -154 Level FAA TRACON
Thu 03:43:25 PM 39.8764 -75.5253 36° Northeast 364 419 13,000  Descending FAA TRACON
Thu 03:43:48 PM 39.9028 -75.5011 35° Northeast 367 422 13,100  Climbing FAA TRACON
Thu 03:44:09 PM 39.9417 -75.4636 36° Northeast 367 422 13,000  Descending FAA TRACON
Thu 03:44:26 PM 39.9614 -75.4469 33° Northeast 369 425 13,100 162 Climbing FAA TRACON
Thu 03:44:46 PM 39.9936 -75.4167 36° Northeast 368 423 13,100  Level FAA TRACON
Thu 03:45:06 PM 40.0200 -75.3925 35° Northeast 374 430 13,100  Level FAA TRACON
Thu 03:45:26 PM 40.0461 -75.3681 36° Northeast 373 429 13,100  Level FAA TRACON
Thu 03:45:46 PM 40.0722 -75.3439 35° Northeast 373 429 13,100 -150 Level FAA TRACON
Thu 03:46:06 PM 40.1036 -75.3147 35° Northeast 374 430 13,000  Descending FAA TRACON
Thu 03:46:26 PM 40.1306 -75.2894 36° Northeast 366 421 13,100 154 Climbing FAA TRACON
Thu 03:46:45 PM 40.1539 -75.2672 36° Northeast 348 400 13,100 -769 Level FAA TRACON
Thu 03:47:05 PM 40.1828 -75.2406 35° Northeast 334 384 12,600 -1,500 Descending FAA TRACON
Thu 03:47:25 PM 40.2058 -75.2189 36° Northeast 332 382 12,100 -1,463 Descending FAA TRACON
Thu 03:47:46 PM 40.2289 -75.1972 36° Northeast 330 380 11,600 -1,800 Descending FAA TRACON
Thu 03:48:05 PM 40.2569 -75.1719 35° Northeast 329 379 10,900 -2,000 Descending FAA TRACON
Thu 03:48:25 PM 40.2797 -75.1503 36° Northeast 320 368 10,300 -1,800 Descending FAA TRACON
Thu 03:48:45 PM 40.3017 -75.1297 36° Northeast 318 366 9,700 -1,950 Descending FAA TRACON
Thu 03:49:05 PM 40.3286 -75.1031 37° Northeast 315 362 9,000 -1,800 Descending FAA TRACON
Thu 03:49:25 PM 40.3458 -75.0767 49° Northeast 310 357 8,500 -1,500 Descending FAA TRACON
Thu 03:49:45 PM 40.3631 -75.0519 48° Northeast 300 345 8,000 -1,800 Descending FAA TRACON
Thu 03:50:05 PM 40.3861 -75.0206 46° Northeast 309 356 7,300 -1,650 Descending FAA TRACON
Thu 03:50:25 PM 40.4028 -74.9917 53° Northeast 327 376 6,900 -1,350 Descending FAA TRACON
Thu 03:50:45 PM 40.4181 -74.9636 54° Northeast 310 357 6,400 -1,350 Descending FAA TRACON
Thu 03:51:05 PM 40.4331 -74.9350 55° Northeast 308 354 6,000 -1,500 Descending FAA TRACON
Thu 03:51:25 PM 40.4503 -74.9019 56° Northeast 305 351 5,400 -1,650 Descending FAA TRACON
Thu 03:51:45 PM 40.4678 -74.8736 51° Northeast 303 349 4,900 -1,350 Descending FAA TRACON
Thu 03:52:05 PM 40.4833 -74.8469 53° Northeast 300 345 4,500 -1,350 Descending FAA TRACON
Thu 03:52:25 PM 40.4997 -74.8169 54° Northeast 298 343 4,000 -750 Descending FAA TRACON
Thu 03:52:45 PM 40.5194 -74.8014 31° Northeast 298 343 4,000  Level FAA TRACON
Thu 03:53:52 PM 40.6000 -74.7500 26° Northeast 298 343 4,000  Level New TRACON
Thu 03:54:52 PM 40.6833 -74.6833 31° Northeast 305 351 4,000  Level New TRACON
Thu 03:55:52 PM 40.7667 -74.6333 24° Northeast 302 348 4,000  Level New TRACON
Thu 03:56:46 PM 40.8333 -74.6000 21° North 303 349 4,000  Level New TRACON
Thu 03:57:46 PM 40.9000 -74.5333 37° Northeast 304 350 4,000  Level New TRACON
Thu 03:58:46 PM 40.9833 -74.4833 24° Northeast 302 348 4,000 -400 Level New TRACON
Thu 03:59:46 PM 41.0167 -74.4000 62° Northeast 268 308 3,200 -400 Descending New TRACON
Thu 04:00:46 PM 41.0333 -74.3167 75° East 255 293 3,200 -100 Level New TRACON
Thu 04:01:46 PM 41.0500 -74.2333 75° East 259 298 3,000 -143 Descending New TRACON
Thu 04:02:52 PM 41.0833 -74.1500 62° Northeast 202 232 2,900 -333 Descending New TRACON
Thu 04:03:52 PM 41.1000 -74.0833 72° East 176 203 2,300 -474 Descending New TRACON
Thu 04:04:46 PM 41.0667 -74.0500 143° Southeast 197 227 2,000 -158 Descending New TRACON
Thu 04:05:46 PM 41.0167 -74.0500 180° South 172 198 2,000  Level New TRACON

Login

Don't have an account? Register now (free) for customized features, flight alerts, and more!